Time;durP1;ratioP1;P1;durP2;ratioP2;P2;SDS_P1;SDS_P2;PMS_P1;PMS_P2;Temp;Humidity;BMP_temperature;BMP_pressure;BME280_temperature;BME280_humidity;BME280_pressure;Samples;Min_cycle;Max_cycle;Signal;HPM_P1;HPM_P2
2022/09/01 00:00:40;;;;;;;4.50;2.70;;;;;;;;;;4957910;28;20047;-84
2022/09/01 00:03:09;;;;;;;6.00;3.20;;;;;;;;;;4957879;28;20090;-84
2022/09/01 00:05:36;;;;;;;5.47;2.90;;;;;;;;;;4956803;29;20047;-84
2022/09/01 00:08:02;;;;;;;4.38;2.88;;;;;;;;;;4963893;28;20043;-84
2022/09/01 00:10:28;;;;;;;5.35;2.70;;;;;;;;;;4972742;28;20050;-84
2022/09/01 00:12:55;;;;;;;4.32;3.17;;;;;;;;;;4958229;28;20059;-85
2022/09/01 00:15:21;;;;;;;5.32;2.67;;;;;;;;;;4957444;28;20047;-84
2022/09/01 00:17:47;;;;;;;2.80;2.47;;;;;;;;;;4956358;28;20553;-84
2022/09/01 00:20:13;;;;;;;3.95;2.55;;;;;;;;;;4956634;29;20413;-84
2022/09/01 00:22:39;;;;;;;3.25;2.95;;;;;;;;;;4955880;28;20078;-85
2022/09/01 00:25:06;;;;;;;3.47;2.92;;;;;;;;;;4957042;28;20082;-84
2022/09/01 00:27:32;;;;;;;4.75;2.80;;;;;;;;;;4942885;28;20047;-84
2022/09/01 00:29:59;;;;;;;3.90;2.80;;;;;;;;;;4960026;28;20059;-84
2022/09/01 00:32:25;;;;;;;3.85;2.42;;;;;;;;;;4969743;28;20043;-84
2022/09/01 00:34:51;;;;;;;3.33;2.60;;;;;;;;;;4969252;28;20046;-84
2022/09/01 00:37:17;;;;;;;6.72;3.30;;;;;;;;;;4973777;28;20090;-84
2022/09/01 00:39:43;;;;;;;5.75;2.83;;;;;;;;;;4975208;28;20109;-84
2022/09/01 00:42:10;;;;;;;4.72;2.63;;;;;;;;;;4976627;28;20047;-84
2022/09/01 00:44:37;;;;;;;3.45;2.40;;;;;;;;;;4958013;28;20086;-84
2022/09/01 00:47:05;;;;;;;4.68;2.72;;;;;;;;;;4974494;28;20050;-84
2022/09/01 00:49:39;;;;;;;6.10;2.80;;;;;;;;;;4976502;28;20117;-84
2022/09/01 00:52:08;;;;;;;3.28;2.55;;;;;;;;;;4959349;28;20047;-84
2022/09/01 00:54:35;;;;;;;3.72;2.30;;;;;;;;;;4940624;29;20066;-84
2022/09/01 00:57:05;;;;;;;3.30;2.33;;;;;;;;;;4955539;28;20485;-84
2022/09/01 00:59:31;;;;;;;3.80;2.67;;;;;;;;;;4956553;28;20047;-84
2022/09/01 01:01:57;;;;;;;3.30;2.60;;;;;;;;;;4969726;28;20055;-84
2022/09/01 01:04:24;;;;;;;3.83;2.80;;;;;;;;;;4976270;28;20054;-84
2022/09/01 01:06:57;;;;;;;2.85;2.55;;;;;;;;;;4969115;28;20058;-84
2022/09/01 01:09:24;;;;;;;4.30;2.50;;;;;;;;;;4955659;28;20040;-84
2022/09/01 01:11:51;;;;;;;3.80;2.42;;;;;;;;;;4967931;28;20043;-83
2022/09/01 01:14:18;;;;;;;4.10;2.60;;;;;;;;;;4958969;28;20077;-84
2022/09/01 01:16:46;;;;;;;4.10;2.55;;;;;;;;;;4975558;28;20051;-84
2022/09/01 01:25:17;;;;;;;2.85;2.20;;;;;;;;;;4925052;29;20052;-84
2022/09/01 01:27:44;;;;;;;3.90;2.50;;;;;;;;;;4950307;28;20122;-84
2022/09/01 01:30:11;;;;;;;3.13;2.60;;;;;;;;;;4935085;29;20055;-83
2022/09/01 01:32:41;;;;;;;3.13;2.15;;;;;;;;;;4944309;29;20083;-84
2022/09/01 01:35:13;;;;;;;3.10;2.20;;;;;;;;;;4934084;29;20516;-84
2022/09/01 01:37:44;;;;;;;3.53;2.30;;;;;;;;;;4946682;29;20571;-84
2022/09/01 01:40:14;;;;;;;3.17;2.33;;;;;;;;;;4956117;29;20492;-84
2022/09/01 01:42:42;;;;;;;2.85;2.35;;;;;;;;;;4938798;29;20428;-84
2022/09/01 01:45:11;;;;;;;2.35;2.10;;;;;;;;;;4952825;29;20058;-84
2022/09/01 01:47:38;;;;;;;3.00;2.20;;;;;;;;;;4946381;29;20047;-84
2022/09/01 01:50:08;;;;;;;2.75;2.28;;;;;;;;;;4954291;29;20051;-84
2022/09/01 01:52:34;;;;;;;3.35;2.42;;;;;;;;;;4948013;29;20055;-84
2022/09/01 01:55:01;;;;;;;3.22;2.47;;;;;;;;;;4948862;28;20102;-84
2022/09/01 01:57:30;;;;;;;3.78;2.30;;;;;;;;;;4973639;28;20043;-84
2022/09/01 01:59:57;;;;;;;3.33;2.40;;;;;;;;;;4965160;28;20048;-84
2022/09/01 02:02:23;;;;;;;4.25;2.55;;;;;;;;;;4975009;28;20505;-84
2022/09/01 02:04:49;;;;;;;3.40;2.67;;;;;;;;;;4942387;28;20054;-84
2022/09/01 02:07:16;;;;;;;3.75;2.60;;;;;;;;;;4959498;28;20047;-84
2022/09/01 02:09:45;;;;;;;3.42;2.72;;;;;;;;;;4938324;29;20544;-84
2022/09/01 02:12:11;;;;;;;3.20;2.78;;;;;;;;;;4955634;29;20051;-84
2022/09/01 02:14:37;;;;;;;3.42;2.72;;;;;;;;;;4964239;28;20049;-84
2022/09/01 02:17:06;;;;;;;3.25;2.80;;;;;;;;;;4960357;28;20055;-84
2022/09/01 02:19:35;;;;;;;4.22;2.42;;;;;;;;;;4955053;28;20121;-84
2022/09/01 02:22:01;;;;;;;3.63;3.05;;;;;;;;;;4954977;29;20120;-84
2022/09/01 02:24:30;;;;;;;3.78;2.63;;;;;;;;;;4959932;28;20046;-84
2022/09/01 02:26:59;;;;;;;3.47;2.40;;;;;;;;;;4974790;28;20047;-84
2022/09/01 02:29:27;;;;;;;3.03;2.40;;;;;;;;;;4974651;28;20097;-84
2022/09/01 02:31:54;;;;;;;3.33;2.53;;;;;;;;;;4974751;28;20121;-84
2022/09/01 02:34:22;;;;;;;5.30;2.67;;;;;;;;;;4973059;28;20046;-84
2022/09/01 02:36:50;;;;;;;2.90;2.60;;;;;;;;;;4954172;28;20404;-84
2022/09/01 02:39:27;;;;;;;4.05;2.97;;;;;;;;;;4961120;28;20054;-84
2022/09/01 02:41:53;;;;;;;4.95;2.60;;;;;;;;;;4973616;28;20047;-84
2022/09/01 02:44:21;;;;;;;3.58;2.60;;;;;;;;;;4972097;28;20039;-84
2022/09/01 02:46:47;;;;;;;3.33;2.60;;;;;;;;;;4973443;28;20133;-84
2022/09/01 02:49:16;;;;;;;4.75;2.65;;;;;;;;;;4974688;28;20125;-84
2022/09/01 02:51:47;;;;;;;3.22;2.80;;;;;;;;;;4973390;28;20082;-84
2022/09/01 02:54:16;;;;;;;3.10;2.65;;;;;;;;;;4971714;28;20046;-84
2022/09/01 02:56:42;;;;;;;5.50;2.90;;;;;;;;;;4968430;28;20409;-84
2022/09/01 02:59:11;;;;;;;5.10;3.05;;;;;;;;;;4954854;28;20047;-84
2022/09/01 03:01:38;;;;;;;3.72;2.70;;;;;;;;;;4968731;28;20497;-84
2022/09/01 03:04:07;;;;;;;3.80;2.60;;;;;;;;;;4973728;28;20054;-84
2022/09/01 03:06:35;;;;;;;3.13;2.75;;;;;;;;;;4973243;28;20141;-84
2022/09/01 03:09:02;;;;;;;2.90;2.60;;;;;;;;;;4956644;28;20488;-84
2022/09/01 03:11:29;;;;;;;3.40;2.80;;;;;;;;;;4963989;28;20059;-84
2022/09/01 03:13:55;;;;;;;3.22;2.47;;;;;;;;;;4958875;28;20118;-84
2022/09/01 03:16:21;;;;;;;3.47;2.40;;;;;;;;;;4978108;28;20124;-84
2022/09/01 03:18:49;;;;;;;3.58;2.80;;;;;;;;;;4976653;28;20050;-84
2022/09/01 03:21:15;;;;;;;4.00;2.60;;;;;;;;;;4972905;28;20174;-84
2022/09/01 03:23:42;;;;;;;3.45;2.72;;;;;;;;;;4958798;28;20421;-84
2022/09/01 03:26:08;;;;;;;4.95;2.95;;;;;;;;;;4958956;29;20051;-84
2022/09/01 03:28:36;;;;;;;3.47;2.88;;;;;;;;;;4957319;28;20134;-84
2022/09/01 03:31:02;;;;;;;4.78;2.90;;;;;;;;;;4958424;28;20521;-84
2022/09/01 03:33:28;;;;;;;3.97;2.75;;;;;;;;;;4970447;28;20436;-85
2022/09/01 03:35:55;;;;;;;3.40;2.83;;;;;;;;;;4960551;28;20059;-84
2022/09/01 03:38:23;;;;;;;3.45;2.72;;;;;;;;;;4959879;28;20051;-84
2022/09/01 03:40:53;;;;;;;3.67;2.60;;;;;;;;;;4977038;28;20464;-84
2022/09/01 03:43:23;;;;;;;4.20;2.90;;;;;;;;;;4966984;28;20076;-84
2022/09/01 03:45:50;;;;;;;4.28;3.00;;;;;;;;;;4973303;29;20051;-84
2022/09/01 03:48:16;;;;;;;3.90;2.90;;;;;;;;;;4963736;28;20055;-84
2022/09/01 03:50:46;;;;;;;3.60;3.00;;;;;;;;;;4959086;29;20039;-84
2022/09/01 03:53:19;;;;;;;3.42;3.13;;;;;;;;;;4943009;28;20050;-84
2022/09/01 03:55:46;;;;;;;3.92;3.00;;;;;;;;;;4957876;28;20066;-84
2022/09/01 03:58:17;;;;;;;3.35;3.05;;;;;;;;;;4957607;28;20126;-84
2022/09/01 04:00:44;;;;;;;3.58;3.20;;;;;;;;;;4957712;29;20079;-84
2022/09/01 04:03:12;;;;;;;3.40;3.10;;;;;;;;;;4973496;28;20046;-84
2022/09/01 04:05:39;;;;;;;3.13;2.83;;;;;;;;;;4977479;28;20062;-83
2022/09/01 04:08:09;;;;;;;3.63;2.90;;;;;;;;;;4968341;28;20453;-84
2022/09/01 04:10:37;;;;;;;4.05;3.17;;;;;;;;;;4966541;28;20073;-83
2022/09/01 04:13:04;;;;;;;3.63;2.90;;;;;;;;;;4945394;29;20485;-84
2022/09/01 04:15:31;;;;;;;3.47;2.90;;;;;;;;;;4956860;29;20082;-84
2022/09/01 04:18:11;;;;;;;3.53;3.03;;;;;;;;;;4957847;28;20047;-84
2022/09/01 04:20:47;;;;;;;5.15;3.00;;;;;;;;;;4956012;28;20051;-84
2022/09/01 04:23:15;;;;;;;;;;;;;;;;;;4958181;28;20047;-84
2022/09/01 04:25:42;;;;;;;3.72;3.00;;;;;;;;;;4974992;28;19973;-84
2022/09/01 04:28:21;;;;;;;3.78;3.05;;;;;;;;;;4975470;28;20086;-84
2022/09/01 04:30:48;;;;;;;4.32;3.38;;;;;;;;;;4956942;29;20054;-84
2022/09/01 04:33:16;;;;;;;7.35;3.00;;;;;;;;;;4956386;28;20049;-84
2022/09/01 04:35:42;;;;;;;3.63;3.30;;;;;;;;;;4955996;28;20043;-84
2022/09/01 04:38:08;;;;;;;4.40;3.30;;;;;;;;;;4955645;28;20055;-83
2022/09/01 04:40:39;;;;;;;3.90;3.13;;;;;;;;;;4961195;28;20045;-84
2022/09/01 04:43:05;;;;;;;5.03;3.60;;;;;;;;;;4956416;28;20047;-84
2022/09/01 04:45:35;;;;;;;3.80;3.45;;;;;;;;;;4955126;28;20047;-84
2022/09/01 04:48:01;;;;;;;5.82;3.45;;;;;;;;;;4954957;28;20055;-84
2022/09/01 04:50:29;;;;;;;5.18;3.40;;;;;;;;;;4954771;28;20048;-84
2022/09/01 04:53:00;;;;;;;3.70;3.30;;;;;;;;;;4965712;28;20050;-84
2022/09/01 04:55:28;;;;;;;5.13;3.20;;;;;;;;;;4959883;28;20058;-83
2022/09/01 04:57:56;;;;;;;6.32;3.40;;;;;;;;;;4939444;29;20059;-84
2022/09/01 05:00:22;;;;;;;3.40;3.10;;;;;;;;;;4955390;28;20055;-84
2022/09/01 05:02:51;;;;;;;3.97;3.30;;;;;;;;;;4955269;28;20059;-84
2022/09/01 05:05:17;;;;;;;3.53;3.10;;;;;;;;;;4955680;29;20059;-83
2022/09/01 05:07:43;;;;;;;4.47;3.40;;;;;;;;;;4957618;28;20054;-84
2022/09/01 05:10:09;;;;;;;4.20;3.10;;;;;;;;;;4968271;28;20412;-84
2022/09/01 05:12:35;;;;;;;3.25;2.95;;;;;;;;;;4975893;28;20042;-84
2022/09/01 05:15:05;;;;;;;3.35;3.05;;;;;;;;;;4959593;28;20178;-84
2022/09/01 05:17:32;;;;;;;4.95;3.13;;;;;;;;;;4945892;29;20046;-83
2022/09/01 05:19:58;;;;;;;4.07;3.42;;;;;;;;;;4985544;28;20125;-83
2022/09/01 05:22:25;;;;;;;3.75;3.38;;;;;;;;;;4975485;28;20046;-83
2022/09/01 05:24:51;;;;;;;3.75;3.20;;;;;;;;;;4972707;28;20058;-83
2022/09/01 05:27:18;;;;;;;3.97;3.28;;;;;;;;;;4974418;28;20047;-84
2022/09/01 05:29:45;;;;;;;4.10;3.45;;;;;;;;;;4969215;28;20043;-84
2022/09/01 05:32:11;;;;;;;3.92;3.35;;;;;;;;;;4946872;28;20047;-84
2022/09/01 05:34:39;;;;;;;4.40;3.42;;;;;;;;;;4959967;28;20117;-84
2022/09/01 05:37:07;;;;;;;9.02;3.60;;;;;;;;;;4962879;28;20049;-84
2022/09/01 05:39:35;;;;;;;4.95;3.53;;;;;;;;;;4967391;28;20103;-83
2022/09/01 05:42:06;;;;;;;4.38;3.22;;;;;;;;;;4955805;28;20079;-85
2022/09/01 05:44:32;;;;;;;4.50;3.25;;;;;;;;;;4954560;29;20093;-83
2022/09/01 05:46:59;;;;;;;4.68;3.40;;;;;;;;;;4970394;28;20576;-83
2022/09/01 05:49:27;;;;;;;5.78;3.60;;;;;;;;;;4964911;28;20074;-84
2022/09/01 05:51:57;;;;;;;3.55;3.25;;;;;;;;;;4973845;28;20046;-84
2022/09/01 05:54:26;;;;;;;4.28;3.75;;;;;;;;;;4980899;28;20105;-84
2022/09/01 05:56:53;;;;;;;4.10;3.50;;;;;;;;;;4985758;28;20042;-84
2022/09/01 05:59:19;;;;;;;4.63;3.92;;;;;;;;;;4969634;28;20500;-82
2022/09/01 06:01:46;;;;;;;4.65;3.65;;;;;;;;;;4967494;28;20050;-84
2022/09/01 06:04:13;;;;;;;4.50;4.00;;;;;;;;;;4968064;28;20043;-84
2022/09/01 06:06:45;;;;;;;4.00;3.60;;;;;;;;;;4966162;28;20053;-83
2022/09/01 06:09:12;;;;;;;5.07;4.20;;;;;;;;;;4963907;28;20066;-84
2022/09/01 06:11:41;;;;;;;4.63;3.63;;;;;;;;;;4966080;28;20427;-84
2022/09/01 06:14:10;;;;;;;4.40;3.72;;;;;;;;;;4973417;28;20042;-84
2022/09/01 06:16:36;;;;;;;5.32;3.70;;;;;;;;;;4971519;28;20055;-84
2022/09/01 06:19:02;;;;;;;4.03;3.60;;;;;;;;;;4972829;28;20069;-84
2022/09/01 06:21:30;;;;;;;4.60;3.95;;;;;;;;;;4964689;28;20064;-84
2022/09/01 06:23:57;;;;;;;4.35;3.80;;;;;;;;;;4962818;28;20051;-84
2022/09/01 06:26:33;;;;;;;4.03;3.63;;;;;;;;;;4954953;28;20043;-83
2022/09/01 06:29:14;;;;;;;4.53;3.70;;;;;;;;;;4954337;29;20091;-83
2022/09/01 06:31:41;;;;;;;4.85;3.60;;;;;;;;;;4938064;29;20126;-83
2022/09/01 06:34:08;;;;;;;4.40;4.00;;;;;;;;;;4970261;28;20704;-84
2022/09/01 06:36:36;;;;;;;4.53;3.97;;;;;;;;;;4968256;28;20095;-84
2022/09/01 06:39:02;;;;;;;4.47;3.67;;;;;;;;;;4974982;28;20496;-84
2022/09/01 06:41:30;;;;;;;4.07;3.47;;;;;;;;;;4959115;28;20524;-84
2022/09/01 06:43:56;;;;;;;5.85;4.10;;;;;;;;;;4958958;28;20047;-85
2022/09/01 06:46:28;;;;;;;8.07;3.90;;;;;;;;;;4968035;28;20043;-85
2022/09/01 06:48:57;;;;;;;5.35;3.45;;;;;;;;;;4973797;28;20051;-84
2022/09/01 06:51:24;;;;;;;4.43;3.85;;;;;;;;;;4959307;29;20504;-85
2022/09/01 06:53:58;;;;;;;4.47;3.78;;;;;;;;;;4966594;28;20449;-85
2022/09/01 06:56:27;;;;;;;4.88;3.70;;;;;;;;;;4967958;28;20065;-85
2022/09/01 06:58:53;;;;;;;4.07;3.63;;;;;;;;;;4964018;28;20564;-84
2022/09/01 07:01:21;;;;;;;4.30;3.40;;;;;;;;;;4960512;28;20050;-84
2022/09/01 07:03:49;;;;;;;3.67;3.20;;;;;;;;;;4985122;28;20062;-85
2022/09/01 07:06:17;;;;;;;9.25;3.60;;;;;;;;;;4995428;28;20050;-85
2022/09/01 07:08:48;;;;;;;3.78;3.47;;;;;;;;;;4960352;29;20108;-85
2022/09/01 07:11:24;;;;;;;3.90;3.50;;;;;;;;;;4982851;28;20043;-84
2022/09/01 07:13:53;;;;;;;;;;;;;;;;;;4976830;28;20057;-84
2022/09/01 07:16:21;;;;;;;3.92;2.97;;;;;;;;;;4986661;28;19934;-85
2022/09/01 07:18:50;;;;;;;3.58;3.28;;;;;;;;;;4958972;29;20055;-84
2022/09/01 07:21:17;;;;;;;4.13;3.10;;;;;;;;;;4977838;28;20040;-84
2022/09/01 07:23:43;;;;;;;5.22;3.10;;;;;;;;;;4983783;28;20114;-85
2022/09/01 07:26:10;;;;;;;3.72;2.90;;;;;;;;;;4990873;28;20042;-83
2022/09/01 07:28:37;;;;;;;3.80;3.00;;;;;;;;;;4988529;28;20061;-84
2022/09/01 07:31:04;;;;;;;3.92;3.00;;;;;;;;;;4972964;28;20085;-84
2022/09/01 07:33:30;;;;;;;2.92;2.60;;;;;;;;;;4975637;28;20054;-85
2022/09/01 07:35:56;;;;;;;5.03;2.60;;;;;;;;;;4982426;28;20042;-84
2022/09/01 07:38:23;;;;;;;3.35;2.80;;;;;;;;;;4978599;28;20109;-84
2022/09/01 07:40:52;;;;;;;3.53;2.67;;;;;;;;;;4964332;28;20262;-85
2022/09/01 07:43:24;;;;;;;3.33;2.85;;;;;;;;;;4949644;29;20130;-85
2022/09/01 07:45:54;;;;;;;3.10;2.50;;;;;;;;;;4971805;28;20042;-84
2022/09/01 07:48:22;;;;;;;4.50;2.55;;;;;;;;;;4983974;28;20113;-85
2022/09/01 07:50:51;;;;;;;2.72;2.20;;;;;;;;;;4986628;28;20050;-86
2022/09/01 07:53:21;;;;;;;2.35;2.15;;;;;;;;;;4989066;28;20054;-86
2022/09/01 07:55:49;;;;;;;3.50;2.47;;;;;;;;;;4964216;28;20497;-85
2022/09/01 07:58:16;;;;;;;2.55;2.25;;;;;;;;;;4980108;28;20046;-85
2022/09/01 08:00:44;;;;;;;3.10;2.53;;;;;;;;;;4980792;28;20045;-84
2022/09/01 08:03:11;;;;;;;2.45;2.20;;;;;;;;;;4993557;28;20065;-85
2022/09/01 08:05:37;;;;;;;3.75;2.22;;;;;;;;;;4990377;28;20023;-86
2022/09/01 08:08:04;;;;;;;2.72;2.33;;;;;;;;;;4994770;28;20038;-83
2022/09/01 08:10:30;;;;;;;2.30;2.10;;;;;;;;;;5000262;28;20047;-83
2022/09/01 08:12:56;;;;;;;5.13;2.30;;;;;;;;;;4986701;28;20039;-84
2022/09/01 08:15:23;;;;;;;3.40;2.08;;;;;;;;;;4979882;28;20035;-84
2022/09/01 08:17:49;;;;;;;3.25;2.20;;;;;;;;;;4982612;28;20054;-84
2022/09/01 08:20:15;;;;;;;2.42;2.10;;;;;;;;;;4996824;28;20046;-84
2022/09/01 08:22:42;;;;;;;3.00;2.15;;;;;;;;;;4977838;28;20058;-84
2022/09/01 08:25:08;;;;;;;2.97;2.20;;;;;;;;;;4991227;28;20107;-84
2022/09/01 08:27:35;;;;;;;2.80;2.50;;;;;;;;;;4978161;28;20023;-84
2022/09/01 08:30:03;;;;;;;6.72;2.33;;;;;;;;;;4990610;28;20107;-83
2022/09/01 08:32:29;;;;;;;2.78;2.28;;;;;;;;;;4989998;28;20054;-84
2022/09/01 08:34:56;;;;;;;3.05;2.13;;;;;;;;;;4997836;28;20047;-84
2022/09/01 08:37:22;;;;;;;6.80;2.22;;;;;;;;;;4975547;28;20031;-84
2022/09/01 08:39:48;;;;;;;2.67;2.10;;;;;;;;;;4983041;28;20035;-84
2022/09/01 08:42:20;;;;;;;3.45;2.30;;;;;;;;;;4991835;28;20070;-84
2022/09/01 08:44:56;;;;;;;2.70;2.28;;;;;;;;;;4990444;28;20042;-84
2022/09/01 08:47:22;;;;;;;3.22;2.20;;;;;;;;;;4970540;28;20046;-84
2022/09/01 08:49:50;;;;;;;3.58;2.10;;;;;;;;;;4994717;28;20051;-84
2022/09/01 08:52:36;;;;;;;3.38;2.00;;;;;;;;;;4982881;28;20060;-84
2022/09/01 08:55:09;;;;;;;2.72;1.90;;;;;;;;;;4995766;28;20031;-83
2022/09/01 08:57:36;;;;;;;3.75;2.17;;;;;;;;;;4979677;28;20031;-84
2022/09/01 09:00:08;;;;;;;4.85;2.47;;;;;;;;;;4979447;28;20124;-85
2022/09/01 09:02:34;;;;;;;4.47;2.05;;;;;;;;;;4979546;28;20090;-84
2022/09/01 09:05:26;;;;;;;2.95;2.13;;;;;;;;;;5002495;28;20031;-84
2022/09/01 09:07:58;;;;;;;5.80;2.22;;;;;;;;;;4982585;28;20118;-84
2022/09/01 09:10:51;;;;;;;4.47;2.10;;;;;;;;;;4999128;28;20053;-83
2022/09/01 09:13:23;;;;;;;4.43;2.20;;;;;;;;;;4996225;28;20066;-84
2022/09/01 09:15:53;;;;;;;4.78;2.20;;;;;;;;;;4980083;28;20035;-84
2022/09/01 09:18:25;;;;;;;2.45;2.25;;;;;;;;;;4982633;28;20038;-84
2022/09/01 09:20:52;;;;;;;2.90;2.20;;;;;;;;;;4999978;28;20050;-84
2022/09/01 09:23:25;;;;;;;3.08;2.00;;;;;;;;;;4997288;28;20037;-84
2022/09/01 09:25:51;;;;;;;3.05;2.10;;;;;;;;;;4995988;28;20098;-85
2022/09/01 09:28:17;;;;;;;4.82;1.95;;;;;;;;;;4962784;28;20030;-84
2022/09/01 09:30:43;;;;;;;6.43;2.08;;;;;;;;;;4979510;28;20030;-83
2022/09/01 09:33:11;;;;;;;3.15;1.80;;;;;;;;;;4967058;28;20038;-84
2022/09/01 09:35:41;;;;;;;2.50;1.70;;;;;;;;;;4999013;28;20055;-84
2022/09/01 09:38:31;;;;;;;2.38;1.70;;;;;;;;;;4982595;28;20030;-83
2022/09/01 09:41:00;;;;;;;1.70;1.60;;;;;;;;;;4989308;28;20062;-84
2022/09/01 09:43:28;;;;;;;2.38;1.70;;;;;;;;;;4983492;28;20065;-83
2022/09/01 09:46:14;;;;;;;2.95;1.73;;;;;;;;;;4979726;28;20031;-84
2022/09/01 09:48:40;;;;;;;2.30;1.77;;;;;;;;;;4979298;28;20031;-84
2022/09/01 09:51:16;;;;;;;3.03;1.90;;;;;;;;;;4979793;28;20055;-84
2022/09/01 09:53:42;;;;;;;2.75;1.80;;;;;;;;;;4979515;28;20031;-83
2022/09/01 09:56:08;;;;;;;2.10;1.80;;;;;;;;;;4979416;28;20027;-84
2022/09/01 09:58:39;;;;;;;4.20;2.10;;;;;;;;;;4979289;28;20102;-84
2022/09/01 10:01:08;;;;;;;1.75;1.60;;;;;;;;;;4979456;28;20091;-84
2022/09/01 10:03:37;;;;;;;2.55;1.65;;;;;;;;;;4990061;28;20042;-83
2022/09/01 10:06:03;;;;;;;3.60;1.73;;;;;;;;;;4987401;28;20038;-84
2022/09/01 10:08:33;;;;;;;1.92;1.70;;;;;;;;;;4982022;28;20058;-84
2022/09/01 10:11:00;;;;;;;3.67;1.80;;;;;;;;;;5084328;23;20062;-88
2022/09/01 10:13:30;;;;;;;3.10;1.75;;;;;;;;;;4971997;28;20047;-87
2022/09/01 10:15:57;;;;;;;2.10;1.80;;;;;;;;;;4971699;28;20055;-88
2022/09/01 10:18:30;;;;;;;3.08;1.80;;;;;;;;;;4972549;28;20117;-88
2022/09/01 10:20:58;;;;;;;2.85;1.75;;;;;;;;;;4970980;28;20487;-88
2022/09/01 10:23:26;;;;;;;3.17;1.80;;;;;;;;;;4961797;28;20126;-86
2022/09/01 10:25:55;;;;;;;4.47;2.30;;;;;;;;;;4955856;28;20051;-90
2022/09/01 10:28:23;;;;;;;3.63;2.20;;;;;;;;;;4966426;28;20073;-85
2022/09/01 10:30:50;;;;;;;5.45;2.22;;;;;;;;;;4965033;28;20062;-85
2022/09/01 10:33:17;;;;;;;4.10;2.45;;;;;;;;;;4957650;28;20039;-85
2022/09/01 10:35:45;;;;;;;3.65;2.17;;;;;;;;;;4955012;28;20052;-87
2022/09/01 10:38:30;;;;;;;2.10;1.90;;;;;;;;;;4969969;28;20402;-85
2022/09/01 10:41:17;;;;;;;2.30;1.95;;;;;;;;;;4971304;28;20073;-85
2022/09/01 10:43:44;;;;;;;2.88;2.17;;;;;;;;;;4972511;28;20400;-84
2022/09/01 10:46:19;;;;;;;3.25;1.90;;;;;;;;;;4972900;28;20054;-85
2022/09/01 10:48:46;;;;;;;2.65;2.10;;;;;;;;;;4957837;28;20445;-87
2022/09/01 10:51:12;;;;;;;3.65;2.10;;;;;;;;;;4962142;28;20051;-85
2022/09/01 10:53:42;;;;;;;4.97;2.40;;;;;;;;;;4972622;28;20053;-83
2022/09/01 10:56:26;;;;;;;2.95;1.83;;;;;;;;;;4956274;28;20148;-83
2022/09/01 10:58:52;;;;;;;2.75;2.10;;;;;;;;;;4966210;28;20145;-83
2022/09/01 11:01:38;;;;;;;3.75;1.90;;;;;;;;;;4954222;29;20517;-83
2022/09/01 11:04:05;;;;;;;2.92;2.10;;;;;;;;;;4961809;28;20082;-83
2022/09/01 11:06:32;;;;;;;2.53;2.03;;;;;;;;;;4970848;28;20492;-83
2022/09/01 11:09:00;;;;;;;2.47;2.03;;;;;;;;;;4971970;28;20137;-83
2022/09/01 11:11:34;;;;;;;4.20;2.22;;;;;;;;;;4972362;28;20066;-83
2022/09/01 11:14:03;;;;;;;2.15;1.80;;;;;;;;;;4971416;28;20139;-83
2022/09/01 11:16:35;;;;;;;3.85;1.92;;;;;;;;;;4960435;28;20500;-83
2022/09/01 11:19:20;;;;;;;4.13;2.10;;;;;;;;;;4958727;28;20046;-83
2022/09/01 11:21:47;;;;;;;2.53;1.83;;;;;;;;;;4954649;28;20047;-82
2022/09/01 11:24:31;;;;;;;4.82;2.40;;;;;;;;;;4953627;29;20516;-83
2022/09/01 11:26:58;;;;;;;3.20;2.00;;;;;;;;;;4951748;29;20062;-83
2022/09/01 11:29:42;;;;;;;2.53;1.80;;;;;;;;;;4952924;28;20512;-83
2022/09/01 11:32:09;;;;;;;3.20;1.90;;;;;;;;;;4953720;28;20047;-83
2022/09/01 11:34:40;;;;;;;2.80;1.90;;;;;;;;;;4971918;28;20120;-83
2022/09/01 11:37:11;;;;;;;2.47;1.92;;;;;;;;;;4959870;28;20102;-83
2022/09/01 11:39:42;;;;;;;2.20;1.95;;;;;;;;;;4956598;28;20046;-83
2022/09/01 11:42:08;;;;;;;3.83;2.17;;;;;;;;;;4971663;28;20051;-83
2022/09/01 11:44:40;;;;;;;2.05;1.80;;;;;;;;;;4971170;28;20047;-83
2022/09/01 11:47:10;;;;;;;2.00;1.80;;;;;;;;;;4968083;28;20058;-83
2022/09/01 11:49:38;;;;;;;2.63;2.00;;;;;;;;;;4965937;28;20039;-83
2022/09/01 11:52:04;;;;;;;2.28;1.75;;;;;;;;;;4952659;28;20051;-83
2022/09/01 11:54:37;;;;;;;1.92;1.65;;;;;;;;;;4951604;29;20126;-83
2022/09/01 11:57:22;;;;;;;2.65;1.90;;;;;;;;;;4936040;29;20047;-83
2022/09/01 11:59:49;;;;;;;2.10;1.80;;;;;;;;;;4953202;28;20051;-83
2022/09/01 12:02:21;;;;;;;2.38;1.95;;;;;;;;;;4951905;29;20058;-83
2022/09/01 12:04:49;;;;;;;2.60;2.10;;;;;;;;;;4962066;28;20066;-83
2022/09/01 12:07:24;;;;;;;3.60;1.92;;;;;;;;;;4957563;28;20048;-83
2022/09/01 12:09:51;;;;;;;2.53;1.88;;;;;;;;;;4951371;28;20051;-83
2022/09/01 12:12:28;;;;;;;3.50;1.90;;;;;;;;;;4963914;28;20055;-83
2022/09/01 12:15:06;;;;;;;2.35;1.80;;;;;;;;;;4966400;28;20126;-83
2022/09/01 12:17:32;;;;;;;2.33;2.10;;;;;;;;;;4959821;28;20112;-83
2022/09/01 12:20:18;;;;;;;1.80;1.67;;;;;;;;;;4967806;28;20519;-83
2022/09/01 12:22:44;;;;;;;3.20;2.05;;;;;;;;;;4953620;29;20050;-83
2022/09/01 12:25:18;;;;;;;2.05;1.70;;;;;;;;;;4937659;29;20051;-82
2022/09/01 12:27:44;;;;;;;2.40;2.00;;;;;;;;;;4952980;29;20054;-84
2022/09/01 12:30:11;;;;;;;5.18;2.47;;;;;;;;;;4951275;28;20455;-85
2022/09/01 12:32:38;;;;;;;2.70;2.20;;;;;;;;;;4951863;29;20055;-84
2022/09/01 12:35:05;;;;;;;3.83;2.10;;;;;;;;;;4965523;28;20047;-85
2022/09/01 12:37:31;;;;;;;2.60;2.30;;;;;;;;;;4960380;28;20146;-82
2022/09/01 12:39:58;;;;;;;7.13;2.17;;;;;;;;;;4971430;28;20054;-82
2022/09/01 12:42:24;;;;;;;2.83;2.30;;;;;;;;;;4970757;28;20051;-83
2022/09/01 12:44:51;;;;;;;2.70;1.73;;;;;;;;;;4971644;28;20055;-82
2022/09/01 12:47:36;;;;;;;2.65;1.90;;;;;;;;;;4971752;28;20074;-83
2022/09/01 12:50:04;;;;;;;3.47;1.80;;;;;;;;;;4964077;28;20058;-83
2022/09/01 12:52:31;;;;;;;2.75;2.30;;;;;;;;;;4950823;28;20488;-82
2022/09/01 12:54:57;;;;;;;4.85;2.00;;;;;;;;;;4951933;28;20047;-82
2022/09/01 12:57:33;;;;;;;3.45;2.15;;;;;;;;;;4951262;28;20051;-83
2022/09/01 13:00:25;;;;;;;4.95;1.80;;;;;;;;;;4950578;28;20083;-82
2022/09/01 13:03:05;;;;;;;3.03;2.00;;;;;;;;;;4947318;29;20051;-83
2022/09/01 13:05:32;;;;;;;2.63;1.80;;;;;;;;;;4951627;28;20083;-82
2022/09/01 13:07:59;;;;;;;2.75;1.80;;;;;;;;;;4951526;28;20051;-82
2022/09/01 13:10:28;;;;;;;4.78;2.35;;;;;;;;;;4951869;29;20060;-82
2022/09/01 13:12:56;;;;;;;3.05;1.92;;;;;;;;;;4951816;29;20047;-82
2022/09/01 13:15:24;;;;;;;2.55;2.10;;;;;;;;;;4950593;29;20044;-82
2022/09/01 13:17:50;;;;;;;3.63;2.40;;;;;;;;;;4954434;28;20275;-85
2022/09/01 13:20:16;;;;;;;4.15;2.20;;;;;;;;;;4959045;28;20122;-83
2022/09/01 13:22:43;;;;;;;3.00;2.08;;;;;;;;;;4955353;28;20042;-82
2022/09/01 13:25:15;;;;;;;2.97;1.70;;;;;;;;;;4970231;28;20054;-81
2022/09/01 13:27:43;;;;;;;2.55;1.85;;;;;;;;;;4968031;28;20043;-83
2022/09/01 13:30:10;;;;;;;2.85;1.90;;;;;;;;;;4956992;28;20074;-82
2022/09/01 13:32:36;;;;;;;3.47;2.30;;;;;;;;;;4949947;28;20058;-83
2022/09/01 13:35:03;;;;;;;2.72;1.70;;;;;;;;;;4949757;28;20050;-82
2022/09/01 13:37:29;;;;;;;3.03;2.10;;;;;;;;;;4951234;29;20043;-82
2022/09/01 13:39:55;;;;;;;5.60;2.30;;;;;;;;;;4950553;28;20079;-83
2022/09/01 13:42:21;;;;;;;2.88;1.90;;;;;;;;;;4951532;29;20073;-83
2022/09/01 13:44:48;;;;;;;2.28;1.70;;;;;;;;;;4951528;29;20043;-83
2022/09/01 13:47:14;;;;;;;3.08;1.63;;;;;;;;;;4961331;28;20516;-84
2022/09/01 13:49:40;;;;;;;2.25;1.60;;;;;;;;;;4965090;28;20138;-84
2022/09/01 13:52:06;;;;;;;2.33;1.80;;;;;;;;;;4969925;28;20090;-84
2022/09/01 13:54:32;;;;;;;3.35;2.03;;;;;;;;;;4951366;28;20218;-85
2022/09/01 13:56:58;;;;;;;1.73;1.60;;;;;;;;;;4949904;29;20102;-84
2022/09/01 13:59:24;;;;;;;2.38;1.77;;;;;;;;;;4950137;28;20464;-85
2022/09/01 14:01:50;;;;;;;2.30;1.67;;;;;;;;;;4949977;28;20055;-84
2022/09/01 14:04:17;;;;;;;2.60;1.77;;;;;;;;;;4962683;28;20448;-85
2022/09/01 14:06:43;;;;;;;3.28;1.60;;;;;;;;;;4969960;28;20051;-84
2022/09/01 14:09:10;;;;;;;2.75;1.90;;;;;;;;;;4951334;28;20061;-84
2022/09/01 14:11:36;;;;;;;2.25;1.58;;;;;;;;;;4950994;29;20055;-84
2022/09/01 14:14:02;;;;;;;3.90;1.80;;;;;;;;;;4950210;28;20047;-84
2022/09/01 14:16:29;;;;;;;3.90;1.70;;;;;;;;;;4950875;28;20047;-84
2022/09/01 14:18:55;;;;;;;2.08;1.48;;;;;;;;;;4950265;28;20047;-84
2022/09/01 14:21:21;;;;;;;3.85;1.77;;;;;;;;;;4949381;29;20047;-84
2022/09/01 14:23:47;;;;;;;4.47;1.70;;;;;;;;;;4952121;28;20126;-84
2022/09/01 14:26:14;;;;;;;2.33;1.70;;;;;;;;;;4951807;29;20047;-84
2022/09/01 14:28:44;;;;;;;2.70;1.50;;;;;;;;;;4950006;29;20102;-84
2022/09/01 14:31:11;;;;;;;3.58;1.70;;;;;;;;;;4950569;29;20139;-84
2022/09/01 14:33:38;;;;;;;2.30;1.90;;;;;;;;;;4958111;28;20066;-84
2022/09/01 14:36:04;;;;;;;5.25;1.80;;;;;;;;;;4949659;28;20050;-84
2022/09/01 14:38:30;;;;;;;3.55;1.80;;;;;;;;;;4949707;29;20183;-84
2022/09/01 14:40:56;;;;;;;3.35;1.80;;;;;;;;;;4950698;29;20044;-84
2022/09/01 14:43:24;;;;;;;4.28;1.90;;;;;;;;;;4950889;28;20401;-84
2022/09/01 14:45:50;;;;;;;8.45;1.80;;;;;;;;;;4950722;28;20063;-84
2022/09/01 14:48:19;;;;;;;5.13;1.70;;;;;;;;;;4956392;28;20043;-86
2022/09/01 14:50:47;;;;;;;8.23;1.90;;;;;;;;;;4960130;28;20404;-84
2022/09/01 14:53:13;;;;;;;4.18;1.60;;;;;;;;;;4988226;28;20042;-84
2022/09/01 14:55:40;;;;;;;3.75;2.30;;;;;;;;;;4965697;28;20489;-85
2022/09/01 14:58:06;;;;;;;2.70;1.55;;;;;;;;;;4952381;28;20142;-85